sensor_id;sensor_type;location;lat;lon;timestamp;P1;durP1;ratioP1;P2;durP2;ratioP2
40781;SDS011;26493;51.938;7.626;2022-08-20T00:01:23;26.38;;;20.13;;
40781;SDS011;26493;51.938;7.626;2022-08-20T00:03:49;26.08;;;20.25;;
40781;SDS011;26493;51.938;7.626;2022-08-20T00:06:17;25.33;;;20.23;;
40781;SDS011;26493;51.938;7.626;2022-08-20T00:08:43;26.90;;;21.40;;
40781;SDS011;26493;51.938;7.626;2022-08-20T00:11:10;26.63;;;20.63;;
40781;SDS011;26493;51.938;7.626;2022-08-20T00:13:44;26.88;;;21.17;;
40781;SDS011;26493;51.938;7.626;2022-08-20T00:16:11;25.55;;;21.30;;
40781;SDS011;26493;51.938;7.626;2022-08-20T00:18:38;24.63;;;19.45;;
40781;SDS011;26493;51.938;7.626;2022-08-20T00:21:06;27.33;;;21.58;;
40781;SDS011;26493;51.938;7.626;2022-08-20T00:23:34;27.07;;;20.70;;
40781;SDS011;26493;51.938;7.626;2022-08-20T00:26:01;27.23;;;21.75;;
40781;SDS011;26493;51.938;7.626;2022-08-20T00:28:27;27.25;;;20.98;;
40781;SDS011;26493;51.938;7.626;2022-08-20T00:30:53;31.60;;;21.15;;
40781;SDS011;26493;51.938;7.626;2022-08-20T00:33:20;28.77;;;22.75;;
40781;SDS011;26493;51.938;7.626;2022-08-20T00:35:47;28.25;;;22.20;;
40781;SDS011;26493;51.938;7.626;2022-08-20T00:38:14;35.75;;;26.00;;
40781;SDS011;26493;51.938;7.626;2022-08-20T00:40:51;56.95;;;51.63;;
40781;SDS011;26493;51.938;7.626;2022-08-20T00:45:53;70.10;;;64.25;;
40781;SDS011;26493;51.938;7.626;2022-08-20T00:48:25;73.93;;;67.45;;
40781;SDS011;26493;51.938;7.626;2022-08-20T00:50:53;78.95;;;71.88;;
40781;SDS011;26493;51.938;7.626;2022-08-20T00:53:21;78.55;;;71.93;;
40781;SDS011;26493;51.938;7.626;2022-08-20T00:55:48;73.22;;;67.13;;
40781;SDS011;26493;51.938;7.626;2022-08-20T00:58:14;70.60;;;64.97;;
40781;SDS011;26493;51.938;7.626;2022-08-20T01:00:45;68.78;;;63.38;;
40781;SDS011;26493;51.938;7.626;2022-08-20T01:03:12;67.63;;;62.33;;
40781;SDS011;26493;51.938;7.626;2022-08-20T01:05:40;70.00;;;64.28;;
40781;SDS011;26493;51.938;7.626;2022-08-20T01:08:08;68.10;;;62.25;;
40781;SDS011;26493;51.938;7.626;2022-08-20T01:10:35;71.40;;;65.55;;
40781;SDS011;26493;51.938;7.626;2022-08-20T01:13:03;71.07;;;65.55;;
40781;SDS011;26493;51.938;7.626;2022-08-20T01:15:34;68.00;;;62.45;;
40781;SDS011;26493;51.938;7.626;2022-08-20T01:18:01;66.80;;;61.95;;
40781;SDS011;26493;51.938;7.626;2022-08-20T01:20:35;67.68;;;62.60;;
40781;SDS011;26493;51.938;7.626;2022-08-20T01:23:23;66.68;;;61.67;;
40781;SDS011;26493;51.938;7.626;2022-08-20T01:28:18;65.15;;;60.25;;
40781;SDS011;26493;51.938;7.626;2022-08-20T01:30:45;63.40;;;58.28;;
40781;SDS011;26493;51.938;7.626;2022-08-20T01:33:11;64.38;;;59.38;;
40781;SDS011;26493;51.938;7.626;2022-08-20T01:35:38;62.33;;;57.55;;
40781;SDS011;26493;51.938;7.626;2022-08-20T01:38:05;61.30;;;56.70;;
40781;SDS011;26493;51.938;7.626;2022-08-20T01:40:43;60.97;;;56.47;;
40781;SDS011;26493;51.938;7.626;2022-08-20T01:43:12;61.40;;;56.67;;
40781;SDS011;26493;51.938;7.626;2022-08-20T01:45:39;60.38;;;55.95;;
40781;SDS011;26493;51.938;7.626;2022-08-20T01:48:05;61.85;;;57.20;;
40781;SDS011;26493;51.938;7.626;2022-08-20T01:50:31;59.00;;;54.60;;
40781;SDS011;26493;51.938;7.626;2022-08-20T01:53:05;59.85;;;55.13;;
40781;SDS011;26493;51.938;7.626;2022-08-20T01:55:33;59.58;;;54.97;;
40781;SDS011;26493;51.938;7.626;2022-08-20T01:57:59;59.60;;;54.85;;
40781;SDS011;26493;51.938;7.626;2022-08-20T02:00:26;60.35;;;55.65;;
40781;SDS011;26493;51.938;7.626;2022-08-20T02:02:52;60.08;;;55.10;;
40781;SDS011;26493;51.938;7.626;2022-08-20T02:05:18;61.85;;;56.78;;
40781;SDS011;26493;51.938;7.626;2022-08-20T02:07:44;62.50;;;57.30;;
40781;SDS011;26493;51.938;7.626;2022-08-20T02:10:11;61.78;;;56.95;;
40781;SDS011;26493;51.938;7.626;2022-08-20T02:12:37;60.55;;;55.25;;
40781;SDS011;26493;51.938;7.626;2022-08-20T02:15:04;59.47;;;54.40;;
40781;SDS011;26493;51.938;7.626;2022-08-20T02:17:32;62.63;;;57.30;;
40781;SDS011;26493;51.938;7.626;2022-08-20T02:20:06;62.20;;;57.00;;
40781;SDS011;26493;51.938;7.626;2022-08-20T02:25:29;59.95;;;54.78;;
40781;SDS011;26493;51.938;7.626;2022-08-20T02:27:56;59.65;;;54.67;;
40781;SDS011;26493;51.938;7.626;2022-08-20T02:30:26;61.45;;;56.28;;
40781;SDS011;26493;51.938;7.626;2022-08-20T02:32:53;62.92;;;57.58;;
40781;SDS011;26493;51.938;7.626;2022-08-20T02:35:19;63.13;;;57.85;;
40781;SDS011;26493;51.938;7.626;2022-08-20T02:37:45;64.78;;;59.33;;
40781;SDS011;26493;51.938;7.626;2022-08-20T02:40:13;64.25;;;58.70;;
40781;SDS011;26493;51.938;7.626;2022-08-20T02:42:40;67.82;;;62.00;;
40781;SDS011;26493;51.938;7.626;2022-08-20T02:45:06;68.20;;;62.67;;
40781;SDS011;26493;51.938;7.626;2022-08-20T02:47:33;66.15;;;60.80;;
40781;SDS011;26493;51.938;7.626;2022-08-20T02:49:59;64.40;;;59.10;;
40781;SDS011;26493;51.938;7.626;2022-08-20T02:52:24;66.05;;;60.65;;
40781;SDS011;26493;51.938;7.626;2022-08-20T02:54:50;66.22;;;60.70;;
40781;SDS011;26493;51.938;7.626;2022-08-20T02:57:18;63.13;;;57.90;;
40781;SDS011;26493;51.938;7.626;2022-08-20T02:59:45;63.08;;;58.08;;
40781;SDS011;26493;51.938;7.626;2022-08-20T03:02:11;64.63;;;59.42;;
40781;SDS011;26493;51.938;7.626;2022-08-20T03:04:38;62.65;;;57.60;;
40781;SDS011;26493;51.938;7.626;2022-08-20T03:07:04;61.45;;;56.55;;
40781;SDS011;26493;51.938;7.626;2022-08-20T03:09:30;66.53;;;61.40;;
40781;SDS011;26493;51.938;7.626;2022-08-20T03:11:56;64.82;;;59.78;;
40781;SDS011;26493;51.938;7.626;2022-08-20T03:14:23;62.65;;;57.67;;
40781;SDS011;26493;51.938;7.626;2022-08-20T03:16:49;62.60;;;57.47;;
40781;SDS011;26493;51.938;7.626;2022-08-20T03:19:15;62.15;;;57.00;;
40781;SDS011;26493;51.938;7.626;2022-08-20T03:21:41;59.92;;;55.03;;
40781;SDS011;26493;51.938;7.626;2022-08-20T03:24:07;60.47;;;55.35;;
40781;SDS011;26493;51.938;7.626;2022-08-20T03:26:33;61.45;;;56.45;;
40781;SDS011;26493;51.938;7.626;2022-08-20T03:29:00;59.17;;;54.30;;
40781;SDS011;26493;51.938;7.626;2022-08-20T03:31:26;59.40;;;54.42;;
40781;SDS011;26493;51.938;7.626;2022-08-20T03:33:52;58.67;;;53.78;;
40781;SDS011;26493;51.938;7.626;2022-08-20T03:36:18;56.67;;;51.97;;
40781;SDS011;26493;51.938;7.626;2022-08-20T03:38:44;58.65;;;53.92;;
40781;SDS011;26493;51.938;7.626;2022-08-20T03:41:10;57.92;;;53.17;;
40781;SDS011;26493;51.938;7.626;2022-08-20T03:43:36;59.33;;;54.42;;
40781;SDS011;26493;51.938;7.626;2022-08-20T03:46:03;58.83;;;54.17;;
40781;SDS011;26493;51.938;7.626;2022-08-20T03:48:29;59.47;;;54.65;;
40781;SDS011;26493;51.938;7.626;2022-08-20T03:50:55;58.53;;;53.83;;
40781;SDS011;26493;51.938;7.626;2022-08-20T03:53:24;57.00;;;52.30;;
40781;SDS011;26493;51.938;7.626;2022-08-20T03:55:53;59.38;;;54.33;;
40781;SDS011;26493;51.938;7.626;2022-08-20T03:58:20;58.63;;;53.83;;
40781;SDS011;26493;51.938;7.626;2022-08-20T04:00:47;58.50;;;53.72;;
40781;SDS011;26493;51.938;7.626;2022-08-20T04:03:13;58.22;;;53.33;;
40781;SDS011;26493;51.938;7.626;2022-08-20T04:05:40;57.30;;;52.60;;
40781;SDS011;26493;51.938;7.626;2022-08-20T04:08:08;57.45;;;52.75;;
40781;SDS011;26493;51.938;7.626;2022-08-20T04:10:34;55.03;;;50.30;;
40781;SDS011;26493;51.938;7.626;2022-08-20T04:13:00;56.92;;;52.22;;
40781;SDS011;26493;51.938;7.626;2022-08-20T04:15:26;54.95;;;50.47;;
40781;SDS011;26493;51.938;7.626;2022-08-20T04:17:52;56.95;;;52.15;;
40781;SDS011;26493;51.938;7.626;2022-08-20T04:20:20;56.03;;;51.25;;
40781;SDS011;26493;51.938;7.626;2022-08-20T04:22:56;55.00;;;50.53;;
40781;SDS011;26493;51.938;7.626;2022-08-20T04:25:22;57.38;;;52.30;;
40781;SDS011;26493;51.938;7.626;2022-08-20T04:27:48;54.90;;;50.33;;
40781;SDS011;26493;51.938;7.626;2022-08-20T04:30:15;57.47;;;52.75;;
40781;SDS011;26493;51.938;7.626;2022-08-20T04:32:42;60.95;;;55.95;;
40781;SDS011;26493;51.938;7.626;2022-08-20T04:35:09;60.80;;;55.83;;
40781;SDS011;26493;51.938;7.626;2022-08-20T04:37:35;59.90;;;55.20;;
40781;SDS011;26493;51.938;7.626;2022-08-20T04:40:04;60.72;;;55.95;;
40781;SDS011;26493;51.938;7.626;2022-08-20T04:42:49;61.92;;;56.92;;
40781;SDS011;26493;51.938;7.626;2022-08-20T04:45:15;60.30;;;55.58;;
40781;SDS011;26493;51.938;7.626;2022-08-20T04:47:41;62.13;;;57.13;;
40781;SDS011;26493;51.938;7.626;2022-08-20T04:50:07;63.35;;;58.17;;
40781;SDS011;26493;51.938;7.626;2022-08-20T04:52:34;61.40;;;56.50;;
40781;SDS011;26493;51.938;7.626;2022-08-20T04:55:01;61.03;;;56.10;;
40781;SDS011;26493;51.938;7.626;2022-08-20T04:57:28;61.53;;;56.63;;
40781;SDS011;26493;51.938;7.626;2022-08-20T04:59:54;60.60;;;55.58;;
40781;SDS011;26493;51.938;7.626;2022-08-20T05:02:20;60.17;;;55.25;;
40781;SDS011;26493;51.938;7.626;2022-08-20T05:04:46;59.38;;;54.67;;
40781;SDS011;26493;51.938;7.626;2022-08-20T05:07:13;59.58;;;54.75;;
40781;SDS011;26493;51.938;7.626;2022-08-20T05:09:40;59.35;;;54.65;;
40781;SDS011;26493;51.938;7.626;2022-08-20T05:12:06;59.90;;;54.90;;
40781;SDS011;26493;51.938;7.626;2022-08-20T05:14:32;58.17;;;53.47;;
40781;SDS011;26493;51.938;7.626;2022-08-20T05:17:01;59.80;;;54.92;;
40781;SDS011;26493;51.938;7.626;2022-08-20T05:19:29;61.15;;;56.13;;
40781;SDS011;26493;51.938;7.626;2022-08-20T05:21:55;57.72;;;52.92;;
40781;SDS011;26493;51.938;7.626;2022-08-20T05:24:22;61.83;;;56.58;;
40781;SDS011;26493;51.938;7.626;2022-08-20T05:26:48;58.88;;;53.85;;
40781;SDS011;26493;51.938;7.626;2022-08-20T05:29:14;59.80;;;54.78;;
40781;SDS011;26493;51.938;7.626;2022-08-20T05:31:40;59.75;;;54.65;;
40781;SDS011;26493;51.938;7.626;2022-08-20T05:34:07;48.63;;;44.33;;
40781;SDS011;26493;51.938;7.626;2022-08-20T05:36:34;47.58;;;43.22;;
40781;SDS011;26493;51.938;7.626;2022-08-20T05:39:00;49.35;;;44.83;;
40781;SDS011;26493;51.938;7.626;2022-08-20T05:41:26;49.22;;;44.72;;
40781;SDS011;26493;51.938;7.626;2022-08-20T05:43:53;48.22;;;43.63;;
40781;SDS011;26493;51.938;7.626;2022-08-20T05:46:20;47.63;;;43.40;;
40781;SDS011;26493;51.938;7.626;2022-08-20T05:48:46;49.28;;;44.58;;
40781;SDS011;26493;51.938;7.626;2022-08-20T05:51:12;46.70;;;42.17;;
40781;SDS011;26493;51.938;7.626;2022-08-20T05:53:39;47.13;;;42.58;;
40781;SDS011;26493;51.938;7.626;2022-08-20T05:56:05;45.80;;;41.58;;
40781;SDS011;26493;51.938;7.626;2022-08-20T05:58:33;45.92;;;41.60;;
40781;SDS011;26493;51.938;7.626;2022-08-20T06:00:59;46.30;;;41.85;;
40781;SDS011;26493;51.938;7.626;2022-08-20T06:03:25;45.72;;;41.53;;
40781;SDS011;26493;51.938;7.626;2022-08-20T06:06:10;43.38;;;39.40;;
40781;SDS011;26493;51.938;7.626;2022-08-20T06:08:36;44.53;;;40.53;;
40781;SDS011;26493;51.938;7.626;2022-08-20T06:11:03;44.78;;;40.75;;
40781;SDS011;26493;51.938;7.626;2022-08-20T06:13:29;45.50;;;41.55;;
40781;SDS011;26493;51.938;7.626;2022-08-20T06:15:55;45.45;;;41.45;;
40781;SDS011;26493;51.938;7.626;2022-08-20T06:18:21;54.15;;;49.75;;
40781;SDS011;26493;51.938;7.626;2022-08-20T06:20:47;56.13;;;51.55;;
40781;SDS011;26493;51.938;7.626;2022-08-20T06:23:14;55.42;;;50.90;;
40781;SDS011;26493;51.938;7.626;2022-08-20T06:25:40;55.92;;;51.40;;
40781;SDS011;26493;51.938;7.626;2022-08-20T06:28:07;56.22;;;51.38;;
40781;SDS011;26493;51.938;7.626;2022-08-20T06:30:33;54.53;;;50.25;;
40781;SDS011;26493;51.938;7.626;2022-08-20T06:32:59;54.78;;;50.13;;
40781;SDS011;26493;51.938;7.626;2022-08-20T06:35:26;53.50;;;49.15;;
40781;SDS011;26493;51.938;7.626;2022-08-20T06:37:52;53.28;;;48.97;;
40781;SDS011;26493;51.938;7.626;2022-08-20T06:40:20;54.97;;;50.38;;
40781;SDS011;26493;51.938;7.626;2022-08-20T06:42:47;54.78;;;49.80;;
40781;SDS011;26493;51.938;7.626;2022-08-20T06:45:14;53.20;;;48.78;;
40781;SDS011;26493;51.938;7.626;2022-08-20T06:47:42;52.35;;;48.22;;
40781;SDS011;26493;51.938;7.626;2022-08-20T06:50:09;51.90;;;47.40;;
40781;SDS011;26493;51.938;7.626;2022-08-20T06:52:37;52.67;;;48.17;;
40781;SDS011;26493;51.938;7.626;2022-08-20T06:55:03;50.25;;;46.15;;
40781;SDS011;26493;51.938;7.626;2022-08-20T06:57:29;52.95;;;48.60;;
40781;SDS011;26493;51.938;7.626;2022-08-20T06:59:55;51.63;;;47.42;;
40781;SDS011;26493;51.938;7.626;2022-08-20T07:02:22;51.28;;;47.05;;
40781;SDS011;26493;51.938;7.626;2022-08-20T07:04:48;47.28;;;43.35;;
40781;SDS011;26493;51.938;7.626;2022-08-20T07:07:17;49.22;;;45.08;;
40781;SDS011;26493;51.938;7.626;2022-08-20T07:09:44;49.75;;;45.47;;
40781;SDS011;26493;51.938;7.626;2022-08-20T07:12:11;47.28;;;43.30;;
40781;SDS011;26493;51.938;7.626;2022-08-20T07:14:37;45.25;;;41.65;;
40781;SDS011;26493;51.938;7.626;2022-08-20T07:17:03;42.92;;;39.33;;
40781;SDS011;26493;51.938;7.626;2022-08-20T07:19:29;41.83;;;38.22;;
40781;SDS011;26493;51.938;7.626;2022-08-20T07:21:55;31.15;;;28.15;;
40781;SDS011;26493;51.938;7.626;2022-08-20T07:24:21;29.58;;;26.60;;
40781;SDS011;26493;51.938;7.626;2022-08-20T07:26:47;27.65;;;24.38;;
40781;SDS011;26493;51.938;7.626;2022-08-20T07:29:15;27.63;;;23.73;;
40781;SDS011;26493;51.938;7.626;2022-08-20T07:31:41;25.42;;;22.73;;
40781;SDS011;26493;51.938;7.626;2022-08-20T07:34:26;25.92;;;22.73;;
40781;SDS011;26493;51.938;7.626;2022-08-20T07:36:52;24.52;;;21.27;;
40781;SDS011;26493;51.938;7.626;2022-08-20T07:39:18;28.23;;;23.13;;
40781;SDS011;26493;51.938;7.626;2022-08-20T07:41:45;24.08;;;20.48;;
40781;SDS011;26493;51.938;7.626;2022-08-20T07:44:26;24.25;;;21.00;;
40781;SDS011;26493;51.938;7.626;2022-08-20T07:46:52;25.35;;;20.95;;
40781;SDS011;26493;51.938;7.626;2022-08-20T07:49:18;24.33;;;21.25;;
40781;SDS011;26493;51.938;7.626;2022-08-20T07:51:45;24.98;;;21.13;;
40781;SDS011;26493;51.938;7.626;2022-08-20T07:54:11;24.42;;;20.77;;
40781;SDS011;26493;51.938;7.626;2022-08-20T07:56:37;22.92;;;19.23;;
40781;SDS011;26493;51.938;7.626;2022-08-20T07:59:03;25.15;;;19.95;;
40781;SDS011;26493;51.938;7.626;2022-08-20T08:01:30;24.67;;;19.75;;
40781;SDS011;26493;51.938;7.626;2022-08-20T08:03:57;22.70;;;20.30;;
40781;SDS011;26493;51.938;7.626;2022-08-20T08:06:24;23.45;;;19.73;;
40781;SDS011;26493;51.938;7.626;2022-08-20T08:08:51;24.58;;;18.60;;
40781;SDS011;26493;51.938;7.626;2022-08-20T08:11:17;22.77;;;19.10;;
40781;SDS011;26493;51.938;7.626;2022-08-20T08:13:44;22.95;;;19.95;;
40781;SDS011;26493;51.938;7.626;2022-08-20T08:16:11;25.48;;;20.27;;
40781;SDS011;26493;51.938;7.626;2022-08-20T08:18:42;23.35;;;19.30;;
40781;SDS011;26493;51.938;7.626;2022-08-20T08:21:09;22.25;;;19.33;;
40781;SDS011;26493;51.938;7.626;2022-08-20T08:23:39;25.02;;;19.35;;
40781;SDS011;26493;51.938;7.626;2022-08-20T08:26:11;19.60;;;17.20;;
40781;SDS011;26493;51.938;7.626;2022-08-20T08:28:38;22.77;;;17.73;;
40781;SDS011;26493;51.938;7.626;2022-08-20T08:31:05;20.65;;;17.70;;
40781;SDS011;26493;51.938;7.626;2022-08-20T08:33:31;22.15;;;18.58;;
40781;SDS011;26493;51.938;7.626;2022-08-20T08:38:24;21.73;;;18.60;;
40781;SDS011;26493;51.938;7.626;2022-08-20T08:40:51;24.10;;;17.25;;
40781;SDS011;26493;51.938;7.626;2022-08-20T08:43:19;22.33;;;17.60;;
40781;SDS011;26493;51.938;7.626;2022-08-20T08:45:49;19.87;;;17.10;;
40781;SDS011;26493;51.938;7.626;2022-08-20T08:48:16;19.13;;;16.73;;
40781;SDS011;26493;51.938;7.626;2022-08-20T08:50:45;23.23;;;16.95;;
40781;SDS011;26493;51.938;7.626;2022-08-20T08:53:16;20.88;;;16.45;;
40781;SDS011;26493;51.938;7.626;2022-08-20T08:55:43;18.17;;;15.15;;
40781;SDS011;26493;51.938;7.626;2022-08-20T08:58:10;20.80;;;16.35;;
40781;SDS011;26493;51.938;7.626;2022-08-20T09:00:36;18.95;;;15.38;;
40781;SDS011;26493;51.938;7.626;2022-08-20T09:05:34;21.65;;;16.17;;
40781;SDS011;26493;51.938;7.626;2022-08-20T09:08:02;20.42;;;15.13;;
40781;SDS011;26493;51.938;7.626;2022-08-20T09:10:28;17.77;;;14.35;;
40781;SDS011;26493;51.938;7.626;2022-08-20T09:12:54;18.52;;;15.25;;
40781;SDS011;26493;51.938;7.626;2022-08-20T09:15:20;19.50;;;14.70;;
40781;SDS011;26493;51.938;7.626;2022-08-20T09:17:46;20.65;;;16.05;;
40781;SDS011;26493;51.938;7.626;2022-08-20T09:20:12;19.95;;;15.70;;
40781;SDS011;26493;51.938;7.626;2022-08-20T09:22:38;20.08;;;15.30;;
40781;SDS011;26493;51.938;7.626;2022-08-20T09:25:05;21.27;;;16.20;;
40781;SDS011;26493;51.938;7.626;2022-08-20T09:27:32;18.27;;;14.48;;
40781;SDS011;26493;51.938;7.626;2022-08-20T09:29:58;18.15;;;14.57;;
40781;SDS011;26493;51.938;7.626;2022-08-20T09:32:24;19.00;;;14.23;;
40781;SDS011;26493;51.938;7.626;2022-08-20T09:34:51;17.88;;;14.02;;
40781;SDS011;26493;51.938;7.626;2022-08-20T09:37:21;18.50;;;13.60;;
40781;SDS011;26493;51.938;7.626;2022-08-20T09:39:48;18.50;;;13.55;;
40781;SDS011;26493;51.938;7.626;2022-08-20T09:44:41;19.35;;;15.02;;
40781;SDS011;26493;51.938;7.626;2022-08-20T09:47:07;18.80;;;15.23;;
40781;SDS011;26493;51.938;7.626;2022-08-20T09:49:33;18.60;;;14.57;;
40781;SDS011;26493;51.938;7.626;2022-08-20T09:52:01;18.17;;;14.57;;
40781;SDS011;26493;51.938;7.626;2022-08-20T09:54:28;19.52;;;15.05;;
40781;SDS011;26493;51.938;7.626;2022-08-20T09:57:05;17.70;;;14.63;;
40781;SDS011;26493;51.938;7.626;2022-08-20T09:59:32;18.67;;;14.00;;
40781;SDS011;26493;51.938;7.626;2022-08-20T10:01:59;17.98;;;13.35;;
40781;SDS011;26493;51.938;7.626;2022-08-20T10:04:25;20.30;;;12.90;;
40781;SDS011;26493;51.938;7.626;2022-08-20T10:06:51;17.83;;;13.27;;
40781;SDS011;26493;51.938;7.626;2022-08-20T10:09:17;17.85;;;12.88;;
40781;SDS011;26493;51.938;7.626;2022-08-20T10:11:43;16.67;;;12.40;;
40781;SDS011;26493;51.938;7.626;2022-08-20T10:14:09;22.02;;;13.65;;
40781;SDS011;26493;51.938;7.626;2022-08-20T10:16:35;19.80;;;13.20;;
40781;SDS011;26493;51.938;7.626;2022-08-20T10:19:01;18.02;;;12.32;;
40781;SDS011;26493;51.938;7.626;2022-08-20T10:21:28;17.65;;;13.15;;
40781;SDS011;26493;51.938;7.626;2022-08-20T10:23:54;16.98;;;12.60;;
40781;SDS011;26493;51.938;7.626;2022-08-20T10:26:21;18.27;;;12.60;;
40781;SDS011;26493;51.938;7.626;2022-08-20T10:28:47;17.05;;;12.85;;
40781;SDS011;26493;51.938;7.626;2022-08-20T10:31:13;17.02;;;12.75;;
40781;SDS011;26493;51.938;7.626;2022-08-20T10:33:39;18.02;;;12.80;;
40781;SDS011;26493;51.938;7.626;2022-08-20T10:36:06;17.13;;;13.18;;
40781;SDS011;26493;51.938;7.626;2022-08-20T10:38:33;17.35;;;13.23;;
40781;SDS011;26493;51.938;7.626;2022-08-20T10:40:59;19.17;;;13.50;;
40781;SDS011;26493;51.938;7.626;2022-08-20T10:43:25;17.08;;;13.65;;
40781;SDS011;26493;51.938;7.626;2022-08-20T10:45:52;19.10;;;13.48;;
40781;SDS011;26493;51.938;7.626;2022-08-20T10:48:18;17.98;;;12.95;;
40781;SDS011;26493;51.938;7.626;2022-08-20T10:50:44;18.17;;;13.18;;
40781;SDS011;26493;51.938;7.626;2022-08-20T10:53:10;17.33;;;13.02;;
40781;SDS011;26493;51.938;7.626;2022-08-20T10:55:37;18.15;;;14.00;;
40781;SDS011;26493;51.938;7.626;2022-08-20T10:58:06;17.75;;;13.68;;
40781;SDS011;26493;51.938;7.626;2022-08-20T11:00:32;18.83;;;14.57;;
40781;SDS011;26493;51.938;7.626;2022-08-20T11:02:58;19.30;;;13.20;;
40781;SDS011;26493;51.938;7.626;2022-08-20T11:05:24;16.45;;;13.02;;
40781;SDS011;26493;51.938;7.626;2022-08-20T11:07:50;18.45;;;13.45;;
40781;SDS011;26493;51.938;7.626;2022-08-20T11:10:16;16.88;;;13.63;;
40781;SDS011;26493;51.938;7.626;2022-08-20T11:12:42;17.83;;;13.35;;
40781;SDS011;26493;51.938;7.626;2022-08-20T11:15:08;18.98;;;13.52;;
40781;SDS011;26493;51.938;7.626;2022-08-20T11:17:38;19.80;;;13.73;;
40781;SDS011;26493;51.938;7.626;2022-08-20T11:20:04;18.17;;;13.18;;
40781;SDS011;26493;51.938;7.626;2022-08-20T11:22:31;18.80;;;13.35;;
40781;SDS011;26493;51.938;7.626;2022-08-20T11:24:57;18.50;;;13.50;;
40781;SDS011;26493;51.938;7.626;2022-08-20T11:27:25;16.60;;;12.88;;
40781;SDS011;26493;51.938;7.626;2022-08-20T11:29:51;17.00;;;13.77;;
40781;SDS011;26493;51.938;7.626;2022-08-20T11:32:18;17.13;;;12.98;;
40781;SDS011;26493;51.938;7.626;2022-08-20T11:34:44;16.88;;;13.20;;
40781;SDS011;26493;51.938;7.626;2022-08-20T11:37:10;17.65;;;12.57;;
40781;SDS011;26493;51.938;7.626;2022-08-20T11:39:37;18.33;;;13.30;;
40781;SDS011;26493;51.938;7.626;2022-08-20T11:42:03;19.80;;;13.60;;
40781;SDS011;26493;51.938;7.626;2022-08-20T11:44:29;18.83;;;12.68;;
40781;SDS011;26493;51.938;7.626;2022-08-20T11:46:55;17.77;;;12.77;;
40781;SDS011;26493;51.938;7.626;2022-08-20T11:49:23;17.67;;;12.75;;
40781;SDS011;26493;51.938;7.626;2022-08-20T11:51:49;17.65;;;12.90;;
40781;SDS011;26493;51.938;7.626;2022-08-20T11:54:16;18.30;;;13.32;;
40781;SDS011;26493;51.938;7.626;2022-08-20T11:56:42;19.40;;;13.10;;
40781;SDS011;26493;51.938;7.626;2022-08-20T11:59:08;18.58;;;13.00;;
40781;SDS011;26493;51.938;7.626;2022-08-20T12:01:34;18.25;;;13.02;;
40781;SDS011;26493;51.938;7.626;2022-08-20T12:04:00;17.88;;;13.27;;
40781;SDS011;26493;51.938;7.626;2022-08-20T12:06:26;18.63;;;13.57;;
40781;SDS011;26493;51.938;7.626;2022-08-20T12:08:52;17.60;;;13.52;;
40781;SDS011;26493;51.938;7.626;2022-08-20T12:11:18;18.83;;;13.43;;
40781;SDS011;26493;51.938;7.626;2022-08-20T12:13:44;20.85;;;13.73;;
40781;SDS011;26493;51.938;7.626;2022-08-20T12:16:10;18.50;;;13.80;;
40781;SDS011;26493;51.938;7.626;2022-08-20T12:18:36;19.20;;;13.35;;
40781;SDS011;26493;51.938;7.626;2022-08-20T12:21:02;21.73;;;13.68;;
40781;SDS011;26493;51.938;7.626;2022-08-20T12:23:28;18.38;;;13.38;;
40781;SDS011;26493;51.938;7.626;2022-08-20T12:25:54;19.98;;;14.40;;
40781;SDS011;26493;51.938;7.626;2022-08-20T12:28:20;18.88;;;13.43;;
40781;SDS011;26493;51.938;7.626;2022-08-20T12:30:46;20.83;;;13.55;;
40781;SDS011;26493;51.938;7.626;2022-08-20T12:33:12;19.15;;;13.68;;
40781;SDS011;26493;51.938;7.626;2022-08-20T12:35:39;18.40;;;12.75;;
40781;SDS011;26493;51.938;7.626;2022-08-20T12:38:05;23.42;;;12.65;;
40781;SDS011;26493;51.938;7.626;2022-08-20T12:40:32;17.77;;;12.70;;
40781;SDS011;26493;51.938;7.626;2022-08-20T12:42:58;17.60;;;12.60;;
40781;SDS011;26493;51.938;7.626;2022-08-20T12:45:25;17.60;;;13.13;;
40781;SDS011;26493;51.938;7.626;2022-08-20T12:47:51;18.20;;;13.40;;
40781;SDS011;26493;51.938;7.626;2022-08-20T12:50:18;17.52;;;13.60;;
40781;SDS011;26493;51.938;7.626;2022-08-20T12:52:45;17.42;;;13.70;;
40781;SDS011;26493;51.938;7.626;2022-08-20T12:55:12;18.43;;;13.10;;
40781;SDS011;26493;51.938;7.626;2022-08-20T12:57:40;19.13;;;13.50;;
40781;SDS011;26493;51.938;7.626;2022-08-20T13:02:34;20.35;;;13.93;;
40781;SDS011;26493;51.938;7.626;2022-08-20T13:05:01;17.63;;;13.23;;
40781;SDS011;26493;51.938;7.626;2022-08-20T13:07:27;17.63;;;13.52;;
40781;SDS011;26493;51.938;7.626;2022-08-20T13:09:53;19.25;;;13.35;;
40781;SDS011;26493;51.938;7.626;2022-08-20T13:12:19;17.92;;;13.50;;
40781;SDS011;26493;51.938;7.626;2022-08-20T13:14:45;18.60;;;13.38;;
40781;SDS011;26493;51.938;7.626;2022-08-20T13:17:11;21.83;;;14.07;;
40781;SDS011;26493;51.938;7.626;2022-08-20T13:19:41;19.00;;;13.70;;
40781;SDS011;26493;51.938;7.626;2022-08-20T13:22:09;19.77;;;13.57;;
40781;SDS011;26493;51.938;7.626;2022-08-20T13:24:35;17.52;;;13.60;;
40781;SDS011;26493;51.938;7.626;2022-08-20T13:27:06;16.80;;;13.13;;
40781;SDS011;26493;51.938;7.626;2022-08-20T13:29:32;18.08;;;13.32;;
40781;SDS011;26493;51.938;7.626;2022-08-20T13:31:58;19.13;;;13.27;;
40781;SDS011;26493;51.938;7.626;2022-08-20T13:34:24;18.98;;;13.73;;
40781;SDS011;26493;51.938;7.626;2022-08-20T13:36:50;19.75;;;13.27;;
40781;SDS011;26493;51.938;7.626;2022-08-20T13:39:16;19.80;;;13.07;;
40781;SDS011;26493;51.938;7.626;2022-08-20T13:41:42;17.13;;;13.18;;
40781;SDS011;26493;51.938;7.626;2022-08-20T13:44:09;17.73;;;13.55;;
40781;SDS011;26493;51.938;7.626;2022-08-20T13:46:35;19.20;;;13.68;;
40781;SDS011;26493;51.938;7.626;2022-08-20T13:49:01;18.92;;;13.30;;
40781;SDS011;26493;51.938;7.626;2022-08-20T13:51:27;18.77;;;13.77;;
40781;SDS011;26493;51.938;7.626;2022-08-20T13:53:53;19.17;;;13.52;;
40781;SDS011;26493;51.938;7.626;2022-08-20T13:56:19;18.58;;;13.40;;
40781;SDS011;26493;51.938;7.626;2022-08-20T13:58:45;22.02;;;13.90;;
40781;SDS011;26493;51.938;7.626;2022-08-20T14:01:11;19.88;;;13.25;;
40781;SDS011;26493;51.938;7.626;2022-08-20T14:03:37;18.33;;;13.88;;
40781;SDS011;26493;51.938;7.626;2022-08-20T14:06:03;19.80;;;13.80;;
40781;SDS011;26493;51.938;7.626;2022-08-20T14:08:29;20.00;;;13.50;;
40781;SDS011;26493;51.938;7.626;2022-08-20T14:10:55;19.77;;;13.50;;
40781;SDS011;26493;51.938;7.626;2022-08-20T14:13:23;17.73;;;13.60;;
40781;SDS011;26493;51.938;7.626;2022-08-20T14:15:49;18.58;;;13.48;;
40781;SDS011;26493;51.938;7.626;2022-08-20T14:18:15;20.27;;;13.55;;
40781;SDS011;26493;51.938;7.626;2022-08-20T14:20:41;20.15;;;13.35;;
40781;SDS011;26493;51.938;7.626;2022-08-20T14:23:08;18.33;;;13.02;;
40781;SDS011;26493;51.938;7.626;2022-08-20T14:25:34;20.30;;;13.20;;
40781;SDS011;26493;51.938;7.626;2022-08-20T14:28:10;19.60;;;13.38;;
40781;SDS011;26493;51.938;7.626;2022-08-20T14:30:36;21.17;;;12.88;;
40781;SDS011;26493;51.938;7.626;2022-08-20T14:33:03;21.17;;;14.05;;
40781;SDS011;26493;51.938;7.626;2022-08-20T14:35:29;20.20;;;13.38;;
40781;SDS011;26493;51.938;7.626;2022-08-20T14:37:55;23.08;;;14.13;;